sensor_id;sensor_type;location;lat;lon;timestamp;temperature;humidity
12025;DHT22;6073;53.230;10.444;2023-06-14T00:00:11;15.30;99.90
12025;DHT22;6073;53.230;10.444;2023-06-14T00:02:39;15.20;99.90
12025;DHT22;6073;53.230;10.444;2023-06-14T00:05:08;15.20;99.90
12025;DHT22;6073;53.230;10.444;2023-06-14T00:07:38;15.20;99.90
12025;DHT22;6073;53.230;10.444;2023-06-14T00:10:08;15.10;99.90
12025;DHT22;6073;53.230;10.444;2023-06-14T00:12:34;15.10;99.90
12025;DHT22;6073;53.230;10.444;2023-06-14T00:14:59;15.10;99.90
12025;DHT22;6073;53.230;10.444;2023-06-14T00:17:27;15.10;99.90
12025;DHT22;6073;53.230;10.444;2023-06-14T00:19:56;15.00;99.90
12025;DHT22;6073;53.230;10.444;2023-06-14T00:22:22;15.00;99.90
12025;DHT22;6073;53.230;10.444;2023-06-14T00:24:53;14.90;99.90
12025;DHT22;6073;53.230;10.444;2023-06-14T00:27:18;14.90;99.90
12025;DHT22;6073;53.230;10.444;2023-06-14T00:29:44;14.80;99.90
12025;DHT22;6073;53.230;10.444;2023-06-14T00:32:09;14.80;99.90
12025;DHT22;6073;53.230;10.444;2023-06-14T00:34:35;14.70;99.90
12025;DHT22;6073;53.230;10.444;2023-06-14T00:37:01;14.70;99.90
12025;DHT22;6073;53.230;10.444;2023-06-14T00:39:26;14.70;99.90
12025;DHT22;6073;53.230;10.444;2023-06-14T00:41:52;14.60;99.90
12025;DHT22;6073;53.230;10.444;2023-06-14T00:44:18;14.60;99.90
12025;DHT22;6073;53.230;10.444;2023-06-14T00:46:45;14.50;99.90
12025;DHT22;6073;53.230;10.444;2023-06-14T00:49:14;14.50;99.90
12025;DHT22;6073;53.230;10.444;2023-06-14T00:51:42;14.50;99.90
12025;DHT22;6073;53.230;10.444;2023-06-14T00:54:08;14.50;99.90
12025;DHT22;6073;53.230;10.444;2023-06-14T00:56:35;14.40;99.90
12025;DHT22;6073;53.230;10.444;2023-06-14T00:59:01;14.40;99.90
12025;DHT22;6073;53.230;10.444;2023-06-14T01:01:27;14.40;99.90
12025;DHT22;6073;53.230;10.444;2023-06-14T01:03:54;14.30;99.90
12025;DHT22;6073;53.230;10.444;2023-06-14T01:06:44;14.30;99.90
12025;DHT22;6073;53.230;10.444;2023-06-14T01:09:41;14.20;99.90
12025;DHT22;6073;53.230;10.444;2023-06-14T01:15:17;14.20;99.90
12025;DHT22;6073;53.230;10.444;2023-06-14T01:17:44;14.20;99.90
12025;DHT22;6073;53.230;10.444;2023-06-14T01:20:12;14.10;99.90
12025;DHT22;6073;53.230;10.444;2023-06-14T01:22:53;14.10;99.90
12025;DHT22;6073;53.230;10.444;2023-06-14T01:25:20;14.10;99.90
12025;DHT22;6073;53.230;10.444;2023-06-14T01:27:50;14.00;99.90
12025;DHT22;6073;53.230;10.444;2023-06-14T01:30:17;14.00;99.90
12025;DHT22;6073;53.230;10.444;2023-06-14T01:32:44;14.00;99.90
12025;DHT22;6073;53.230;10.444;2023-06-14T01:35:10;14.00;99.90
12025;DHT22;6073;53.230;10.444;2023-06-14T01:37:36;13.90;99.90
12025;DHT22;6073;53.230;10.444;2023-06-14T01:40:04;13.90;99.90
12025;DHT22;6073;53.230;10.444;2023-06-14T01:42:35;13.90;99.90
12025;DHT22;6073;53.230;10.444;2023-06-14T01:45:02;13.80;99.90
12025;DHT22;6073;53.230;10.444;2023-06-14T01:47:29;13.80;99.90
12025;DHT22;6073;53.230;10.444;2023-06-14T01:49:55;13.80;99.90
12025;DHT22;6073;53.230;10.444;2023-06-14T01:52:20;13.70;99.90
12025;DHT22;6073;53.230;10.444;2023-06-14T01:54:47;13.70;99.90
12025;DHT22;6073;53.230;10.444;2023-06-14T01:57:13;13.70;99.90
12025;DHT22;6073;53.230;10.444;2023-06-14T01:59:38;13.60;99.90
12025;DHT22;6073;53.230;10.444;2023-06-14T02:02:04;13.60;99.90
12025;DHT22;6073;53.230;10.444;2023-06-14T02:04:30;13.60;99.90
12025;DHT22;6073;53.230;10.444;2023-06-14T02:06:55;13.60;99.90
12025;DHT22;6073;53.230;10.444;2023-06-14T02:09:21;13.50;99.90
12025;DHT22;6073;53.230;10.444;2023-06-14T02:11:46;13.50;99.90
12025;DHT22;6073;53.230;10.444;2023-06-14T02:14:12;13.50;99.90
12025;DHT22;6073;53.230;10.444;2023-06-14T02:16:38;13.50;99.90
12025;DHT22;6073;53.230;10.444;2023-06-14T02:19:04;13.50;99.90
12025;DHT22;6073;53.230;10.444;2023-06-14T02:21:30;13.50;99.90
12025;DHT22;6073;53.230;10.444;2023-06-14T02:23:56;13.50;99.90
12025;DHT22;6073;53.230;10.444;2023-06-14T02:26:21;13.50;99.90
12025;DHT22;6073;53.230;10.444;2023-06-14T02:28:48;13.40;99.90
12025;DHT22;6073;53.230;10.444;2023-06-14T02:31:13;13.40;99.90
12025;DHT22;6073;53.230;10.444;2023-06-14T02:33:39;13.30;99.90
12025;DHT22;6073;53.230;10.444;2023-06-14T02:36:05;13.20;99.90
12025;DHT22;6073;53.230;10.444;2023-06-14T02:38:31;13.20;99.90
12025;DHT22;6073;53.230;10.444;2023-06-14T02:40:57;13.10;99.90
12025;DHT22;6073;53.230;10.444;2023-06-14T02:43:24;13.10;99.90
12025;DHT22;6073;53.230;10.444;2023-06-14T02:45:50;13.10;99.90
12025;DHT22;6073;53.230;10.444;2023-06-14T02:48:16;13.10;99.90
12025;DHT22;6073;53.230;10.444;2023-06-14T02:50:41;13.00;99.90
12025;DHT22;6073;53.230;10.444;2023-06-14T02:53:07;13.00;99.90
12025;DHT22;6073;53.230;10.444;2023-06-14T02:55:33;13.00;99.90
12025;DHT22;6073;53.230;10.444;2023-06-14T02:57:58;13.10;99.90
12025;DHT22;6073;53.230;10.444;2023-06-14T03:00:24;13.00;99.90
12025;DHT22;6073;53.230;10.444;2023-06-14T03:02:50;13.00;99.90
12025;DHT22;6073;53.230;10.444;2023-06-14T03:05:16;13.00;99.90
12025;DHT22;6073;53.230;10.444;2023-06-14T03:07:45;13.00;99.90
12025;DHT22;6073;53.230;10.444;2023-06-14T03:10:12;13.00;99.90
12025;DHT22;6073;53.230;10.444;2023-06-14T03:12:38;13.00;99.90
12025;DHT22;6073;53.230;10.444;2023-06-14T03:15:05;13.10;99.90
12025;DHT22;6073;53.230;10.444;2023-06-14T03:17:30;13.10;99.90
12025;DHT22;6073;53.230;10.444;2023-06-14T03:19:59;13.10;99.90
12025;DHT22;6073;53.230;10.444;2023-06-14T03:22:25;13.10;99.90
12025;DHT22;6073;53.230;10.444;2023-06-14T03:24:54;13.10;99.90
12025;DHT22;6073;53.230;10.444;2023-06-14T03:27:20;13.20;99.90
12025;DHT22;6073;53.230;10.444;2023-06-14T03:29:46;13.20;99.90
12025;DHT22;6073;53.230;10.444;2023-06-14T03:32:11;13.20;99.90
12025;DHT22;6073;53.230;10.444;2023-06-14T03:34:37;13.20;99.90
12025;DHT22;6073;53.230;10.444;2023-06-14T03:37:04;13.30;99.90
12025;DHT22;6073;53.230;10.444;2023-06-14T03:39:30;13.30;99.90
12025;DHT22;6073;53.230;10.444;2023-06-14T03:41:55;13.30;99.90
12025;DHT22;6073;53.230;10.444;2023-06-14T03:44:21;13.30;99.90
12025;DHT22;6073;53.230;10.444;2023-06-14T03:46:47;13.30;99.90
12025;DHT22;6073;53.230;10.444;2023-06-14T03:49:13;13.40;99.90
12025;DHT22;6073;53.230;10.444;2023-06-14T03:51:39;13.30;99.90
12025;DHT22;6073;53.230;10.444;2023-06-14T03:54:05;13.40;99.90
12025;DHT22;6073;53.230;10.444;2023-06-14T03:56:31;13.40;99.90
12025;DHT22;6073;53.230;10.444;2023-06-14T03:58:57;13.40;99.90
12025;DHT22;6073;53.230;10.444;2023-06-14T04:01:23;13.40;99.90
12025;DHT22;6073;53.230;10.444;2023-06-14T04:03:57;13.40;99.90
12025;DHT22;6073;53.230;10.444;2023-06-14T04:06:23;13.40;99.90
12025;DHT22;6073;53.230;10.444;2023-06-14T04:08:51;13.50;99.90
12025;DHT22;6073;53.230;10.444;2023-06-14T04:11:17;13.50;99.90
12025;DHT22;6073;53.230;10.444;2023-06-14T04:13:42;13.50;99.90
12025;DHT22;6073;53.230;10.444;2023-06-14T04:16:08;13.50;99.90
12025;DHT22;6073;53.230;10.444;2023-06-14T04:18:33;13.60;99.90
12025;DHT22;6073;53.230;10.444;2023-06-14T04:20:59;13.70;99.90
12025;DHT22;6073;53.230;10.444;2023-06-14T04:23:25;13.70;99.90
12025;DHT22;6073;53.230;10.444;2023-06-14T04:25:53;13.80;99.90
12025;DHT22;6073;53.230;10.444;2023-06-14T04:28:19;13.80;99.90
12025;DHT22;6073;53.230;10.444;2023-06-14T04:30:45;13.90;99.90
12025;DHT22;6073;53.230;10.444;2023-06-14T04:33:12;14.00;99.90
12025;DHT22;6073;53.230;10.444;2023-06-14T04:35:38;14.10;99.90
12025;DHT22;6073;53.230;10.444;2023-06-14T04:38:06;14.10;99.90
12025;DHT22;6073;53.230;10.444;2023-06-14T04:40:35;14.20;99.90
12025;DHT22;6073;53.230;10.444;2023-06-14T04:43:10;14.30;99.90
12025;DHT22;6073;53.230;10.444;2023-06-14T04:45:40;14.40;99.90
12025;DHT22;6073;53.230;10.444;2023-06-14T04:48:06;14.60;99.90
12025;DHT22;6073;53.230;10.444;2023-06-14T04:50:32;14.70;99.90
12025;DHT22;6073;53.230;10.444;2023-06-14T04:52:58;14.70;99.90
12025;DHT22;6073;53.230;10.444;2023-06-14T04:55:25;14.90;99.90
12025;DHT22;6073;53.230;10.444;2023-06-14T04:57:51;14.90;99.90
12025;DHT22;6073;53.230;10.444;2023-06-14T05:00:19;15.10;99.90
12025;DHT22;6073;53.230;10.444;2023-06-14T05:02:45;15.30;99.90
12025;DHT22;6073;53.230;10.444;2023-06-14T05:05:12;15.40;99.90
12025;DHT22;6073;53.230;10.444;2023-06-14T05:07:38;15.60;99.90
12025;DHT22;6073;53.230;10.444;2023-06-14T05:10:04;15.70;99.90
12025;DHT22;6073;53.230;10.444;2023-06-14T05:12:30;15.90;99.90
12025;DHT22;6073;53.230;10.444;2023-06-14T05:14:56;16.00;99.90
12025;DHT22;6073;53.230;10.444;2023-06-14T05:17:24;16.40;99.90
12025;DHT22;6073;53.230;10.444;2023-06-14T05:19:49;17.00;99.90
12025;DHT22;6073;53.230;10.444;2023-06-14T05:22:15;17.50;99.90
12025;DHT22;6073;53.230;10.444;2023-06-14T05:24:40;18.20;99.90
12025;DHT22;6073;53.230;10.444;2023-06-14T05:27:07;19.00;99.90
12025;DHT22;6073;53.230;10.444;2023-06-14T05:29:32;19.50;99.90
12025;DHT22;6073;53.230;10.444;2023-06-14T05:31:58;20.10;99.90
12025;DHT22;6073;53.230;10.444;2023-06-14T05:34:24;20.50;99.90
12025;DHT22;6073;53.230;10.444;2023-06-14T05:36:49;20.70;99.90
12025;DHT22;6073;53.230;10.444;2023-06-14T05:39:15;21.10;99.90
12025;DHT22;6073;53.230;10.444;2023-06-14T05:41:40;21.10;99.90
12025;DHT22;6073;53.230;10.444;2023-06-14T05:44:06;21.80;99.90
12025;DHT22;6073;53.230;10.444;2023-06-14T05:46:32;22.40;99.90
12025;DHT22;6073;53.230;10.444;2023-06-14T05:48:58;22.80;99.90
12025;DHT22;6073;53.230;10.444;2023-06-14T05:51:24;23.60;99.90
12025;DHT22;6073;53.230;10.444;2023-06-14T05:53:50;23.40;99.90
12025;DHT22;6073;53.230;10.444;2023-06-14T05:56:17;23.10;99.90
12025;DHT22;6073;53.230;10.444;2023-06-14T05:58:43;23.10;99.90
12025;DHT22;6073;53.230;10.444;2023-06-14T06:01:09;23.40;99.90
12025;DHT22;6073;53.230;10.444;2023-06-14T06:03:34;23.60;99.90
12025;DHT22;6073;53.230;10.444;2023-06-14T06:06:00;23.90;99.90
12025;DHT22;6073;53.230;10.444;2023-06-14T06:08:27;24.20;99.90
12025;DHT22;6073;53.230;10.444;2023-06-14T06:10:52;24.60;99.90
12025;DHT22;6073;53.230;10.444;2023-06-14T06:13:18;24.00;99.90
12025;DHT22;6073;53.230;10.444;2023-06-14T06:15:44;23.80;99.90
12025;DHT22;6073;53.230;10.444;2023-06-14T06:18:09;24.90;99.90
12025;DHT22;6073;53.230;10.444;2023-06-14T06:20:35;24.80;99.90
12025;DHT22;6073;53.230;10.444;2023-06-14T06:23:01;24.60;99.90
12025;DHT22;6073;53.230;10.444;2023-06-14T06:25:27;24.50;99.90
12025;DHT22;6073;53.230;10.444;2023-06-14T06:27:54;24.60;99.90
12025;DHT22;6073;53.230;10.444;2023-06-14T06:30:20;25.20;99.90
12025;DHT22;6073;53.230;10.444;2023-06-14T06:32:46;25.80;99.90
12025;DHT22;6073;53.230;10.444;2023-06-14T06:35:12;25.50;99.90
12025;DHT22;6073;53.230;10.444;2023-06-14T06:37:38;25.50;99.90
12025;DHT22;6073;53.230;10.444;2023-06-14T06:40:04;24.90;99.90
12025;DHT22;6073;53.230;10.444;2023-06-14T06:42:34;24.80;99.90
12025;DHT22;6073;53.230;10.444;2023-06-14T06:44:59;25.60;99.90
12025;DHT22;6073;53.230;10.444;2023-06-14T06:47:25;24.70;99.90
12025;DHT22;6073;53.230;10.444;2023-06-14T06:49:51;25.20;99.90
12025;DHT22;6073;53.230;10.444;2023-06-14T06:52:16;24.70;99.90
12025;DHT22;6073;53.230;10.444;2023-06-14T06:54:42;24.80;99.90
12025;DHT22;6073;53.230;10.444;2023-06-14T06:57:08;25.10;99.90
12025;DHT22;6073;53.230;10.444;2023-06-14T06:59:34;25.00;99.90
12025;DHT22;6073;53.230;10.444;2023-06-14T07:01:59;25.50;99.90
12025;DHT22;6073;53.230;10.444;2023-06-14T07:04:25;26.30;99.00
12025;DHT22;6073;53.230;10.444;2023-06-14T07:06:51;26.30;98.10
12025;DHT22;6073;53.230;10.444;2023-06-14T07:09:17;26.00;98.10
12025;DHT22;6073;53.230;10.444;2023-06-14T07:11:45;25.80;98.60
12025;DHT22;6073;53.230;10.444;2023-06-14T07:14:11;26.50;97.70
12025;DHT22;6073;53.230;10.444;2023-06-14T07:16:36;26.10;97.70
12025;DHT22;6073;53.230;10.444;2023-06-14T07:19:03;26.10;97.00
12025;DHT22;6073;53.230;10.444;2023-06-14T07:21:29;25.70;96.80
12025;DHT22;6073;53.230;10.444;2023-06-14T07:23:55;26.10;97.10
12025;DHT22;6073;53.230;10.444;2023-06-14T07:26:20;26.50;96.50
12025;DHT22;6073;53.230;10.444;2023-06-14T07:28:46;26.40;96.60
12025;DHT22;6073;53.230;10.444;2023-06-14T07:31:13;26.50;96.90
12025;DHT22;6073;53.230;10.444;2023-06-14T07:33:40;26.90;96.60
12025;DHT22;6073;53.230;10.444;2023-06-14T07:36:05;26.90;95.80
12025;DHT22;6073;53.230;10.444;2023-06-14T07:38:31;26.60;95.70
12025;DHT22;6073;53.230;10.444;2023-06-14T07:40:56;26.20;95.50
12025;DHT22;6073;53.230;10.444;2023-06-14T07:43:22;26.30;96.30
12025;DHT22;6073;53.230;10.444;2023-06-14T07:45:47;26.80;96.40
12025;DHT22;6073;53.230;10.444;2023-06-14T07:48:13;27.60;95.90
12025;DHT22;6073;53.230;10.444;2023-06-14T07:50:38;27.80;94.90
12025;DHT22;6073;53.230;10.444;2023-06-14T07:53:04;27.10;94.80
12025;DHT22;6073;53.230;10.444;2023-06-14T07:55:29;27.00;95.10
12025;DHT22;6073;53.230;10.444;2023-06-14T07:57:56;27.50;94.70
12025;DHT22;6073;53.230;10.444;2023-06-14T08:00:21;27.10;95.20
12025;DHT22;6073;53.230;10.444;2023-06-14T08:02:47;27.90;94.60
12025;DHT22;6073;53.230;10.444;2023-06-14T08:05:12;28.00;94.50
12025;DHT22;6073;53.230;10.444;2023-06-14T08:07:39;28.50;94.00
12025;DHT22;6073;53.230;10.444;2023-06-14T08:10:05;28.10;93.70
12025;DHT22;6073;53.230;10.444;2023-06-14T08:12:31;27.80;93.80
12025;DHT22;6073;53.230;10.444;2023-06-14T08:14:57;27.20;94.50
12025;DHT22;6073;53.230;10.444;2023-06-14T08:17:23;27.60;94.10
12025;DHT22;6073;53.230;10.444;2023-06-14T08:19:48;27.90;94.30
12025;DHT22;6073;53.230;10.444;2023-06-14T08:22:14;28.30;93.90
12025;DHT22;6073;53.230;10.444;2023-06-14T08:24:39;28.00;93.90
12025;DHT22;6073;53.230;10.444;2023-06-14T08:27:06;27.80;94.30
12025;DHT22;6073;53.230;10.444;2023-06-14T08:29:31;28.10;93.80
12025;DHT22;6073;53.230;10.444;2023-06-14T08:31:57;28.50;93.40
12025;DHT22;6073;53.230;10.444;2023-06-14T08:34:23;28.90;93.30
12025;DHT22;6073;53.230;10.444;2023-06-14T08:36:50;29.30;92.30
12025;DHT22;6073;53.230;10.444;2023-06-14T08:39:15;29.10;92.50
12025;DHT22;6073;53.230;10.444;2023-06-14T08:41:44;28.80;92.00
12025;DHT22;6073;53.230;10.444;2023-06-14T08:44:11;28.50;92.20
12025;DHT22;6073;53.230;10.444;2023-06-14T08:46:37;28.30;92.20
12025;DHT22;6073;53.230;10.444;2023-06-14T08:49:04;28.10;92.50
12025;DHT22;6073;53.230;10.444;2023-06-14T08:51:32;28.00;92.80
12025;DHT22;6073;53.230;10.444;2023-06-14T08:54:00;27.90;92.60
12025;DHT22;6073;53.230;10.444;2023-06-14T08:56:28;27.70;92.20
12025;DHT22;6073;53.230;10.444;2023-06-14T08:58:55;28.00;92.50
12025;DHT22;6073;53.230;10.444;2023-06-14T09:01:22;27.70;92.90
12025;DHT22;6073;53.230;10.444;2023-06-14T09:03:49;27.40;93.20
12025;DHT22;6073;53.230;10.444;2023-06-14T09:06:15;27.80;93.20
12025;DHT22;6073;53.230;10.444;2023-06-14T09:08:45;27.50;92.70
12025;DHT22;6073;53.230;10.444;2023-06-14T09:11:12;27.40;92.90
12025;DHT22;6073;53.230;10.444;2023-06-14T09:13:39;27.70;92.50
12025;DHT22;6073;53.230;10.444;2023-06-14T09:16:06;27.50;92.70
12025;DHT22;6073;53.230;10.444;2023-06-14T09:18:41;27.40;93.00
12025;DHT22;6073;53.230;10.444;2023-06-14T09:21:08;27.70;93.20
12025;DHT22;6073;53.230;10.444;2023-06-14T09:23:42;27.60;92.20
12025;DHT22;6073;53.230;10.444;2023-06-14T09:26:12;27.30;93.10
12025;DHT22;6073;53.230;10.444;2023-06-14T09:28:45;27.50;93.20
12025;DHT22;6073;53.230;10.444;2023-06-14T09:31:16;27.50;93.20
12025;DHT22;6073;53.230;10.444;2023-06-14T09:33:42;27.10;92.20
12025;DHT22;6073;53.230;10.444;2023-06-14T09:36:15;27.20;93.10
12025;DHT22;6073;53.230;10.444;2023-06-14T09:38:43;26.70;93.00
12025;DHT22;6073;53.230;10.444;2023-06-14T09:41:16;27.10;93.30
12025;DHT22;6073;53.230;10.444;2023-06-14T09:43:42;26.90;92.30
12025;DHT22;6073;53.230;10.444;2023-06-14T09:46:09;26.80;93.00
12025;DHT22;6073;53.230;10.444;2023-06-14T09:48:34;26.50;92.70
12025;DHT22;6073;53.230;10.444;2023-06-14T09:51:01;26.70;92.60
12025;DHT22;6073;53.230;10.444;2023-06-14T09:53:29;26.60;93.10
12025;DHT22;6073;53.230;10.444;2023-06-14T09:55:57;26.10;92.90
12025;DHT22;6073;53.230;10.444;2023-06-14T09:58:23;25.50;93.00
12025;DHT22;6073;53.230;10.444;2023-06-14T10:00:51;25.40;93.50
12025;DHT22;6073;53.230;10.444;2023-06-14T10:03:25;25.40;93.10
12025;DHT22;6073;53.230;10.444;2023-06-14T10:05:54;25.90;93.40
12025;DHT22;6073;53.230;10.444;2023-06-14T10:08:24;26.40;93.10
12025;DHT22;6073;53.230;10.444;2023-06-14T10:10:55;26.80;92.80
12025;DHT22;6073;53.230;10.444;2023-06-14T10:13:21;26.50;92.40
12025;DHT22;6073;53.230;10.444;2023-06-14T10:16:00;25.90;92.60
12025;DHT22;6073;53.230;10.444;2023-06-14T10:18:33;26.20;92.90
12025;DHT22;6073;53.230;10.444;2023-06-14T10:24:08;26.70;91.50
12025;DHT22;6073;53.230;10.444;2023-06-14T10:26:53;26.40;91.80
12025;DHT22;6073;53.230;10.444;2023-06-14T10:29:19;26.60;92.30
12025;DHT22;6073;53.230;10.444;2023-06-14T10:31:46;27.10;92.20
12025;DHT22;6073;53.230;10.444;2023-06-14T10:34:30;26.70;91.20
12025;DHT22;6073;53.230;10.444;2023-06-14T10:37:06;26.50;91.90
12025;DHT22;6073;53.230;10.444;2023-06-14T10:39:43;26.40;91.90
12025;DHT22;6073;53.230;10.444;2023-06-14T10:42:11;26.40;91.70
12025;DHT22;6073;53.230;10.444;2023-06-14T10:44:55;26.90;92.10
12025;DHT22;6073;53.230;10.444;2023-06-14T10:47:34;27.50;91.30
12025;DHT22;6073;53.230;10.444;2023-06-14T10:50:11;27.50;90.20
12025;DHT22;6073;53.230;10.444;2023-06-14T10:52:39;27.70;90.40
12025;DHT22;6073;53.230;10.444;2023-06-14T10:57:35;26.00;90.60
12025;DHT22;6073;53.230;10.444;2023-06-14T11:00:03;25.50;91.10
12025;DHT22;6073;53.230;10.444;2023-06-14T11:05:29;26.70;90.50
12025;DHT22;6073;53.230;10.444;2023-06-14T11:10:50;26.80;90.00
12025;DHT22;6073;53.230;10.444;2023-06-14T11:13:16;26.50;90.20
12025;DHT22;6073;53.230;10.444;2023-06-14T11:15:47;26.30;90.30
12025;DHT22;6073;53.230;10.444;2023-06-14T11:18:13;25.80;91.30
12025;DHT22;6073;53.230;10.444;2023-06-14T11:20:40;25.60;91.30
12025;DHT22;6073;53.230;10.444;2023-06-14T11:23:05;25.40;91.40
12025;DHT22;6073;53.230;10.444;2023-06-14T11:25:31;25.30;91.90
12025;DHT22;6073;53.230;10.444;2023-06-14T11:27:57;25.20;91.30
12025;DHT22;6073;53.230;10.444;2023-06-14T11:30:23;25.10;91.60
12025;DHT22;6073;53.230;10.444;2023-06-14T11:32:50;25.40;91.60
12025;DHT22;6073;53.230;10.444;2023-06-14T11:35:17;26.10;91.00
12025;DHT22;6073;53.230;10.444;2023-06-14T11:37:43;26.70;90.50
12025;DHT22;6073;53.230;10.444;2023-06-14T11:40:13;27.20;90.00
12025;DHT22;6073;53.230;10.444;2023-06-14T11:42:40;27.80;90.50
12025;DHT22;6073;53.230;10.444;2023-06-14T11:45:10;27.90;89.00
12025;DHT22;6073;53.230;10.444;2023-06-14T11:47:39;28.10;87.10
12025;DHT22;6073;53.230;10.444;2023-06-14T11:50:06;28.50;87.60
12025;DHT22;6073;53.230;10.444;2023-06-14T11:52:32;28.30;86.80
12025;DHT22;6073;53.230;10.444;2023-06-14T11:54:58;28.50;87.30
12025;DHT22;6073;53.230;10.444;2023-06-14T11:57:25;28.50;87.40
12025;DHT22;6073;53.230;10.444;2023-06-14T11:59:51;29.00;86.30
12025;DHT22;6073;53.230;10.444;2023-06-14T12:02:17;29.00;86.60
12025;DHT22;6073;53.230;10.444;2023-06-14T12:04:44;29.10;85.70
12025;DHT22;6073;53.230;10.444;2023-06-14T12:07:13;28.50;85.20
12025;DHT22;6073;53.230;10.444;2023-06-14T12:12:28;26.90;87.20
12025;DHT22;6073;53.230;10.444;2023-06-14T12:14:57;26.30;87.20
12025;DHT22;6073;53.230;10.444;2023-06-14T12:17:22;26.00;88.70
12025;DHT22;6073;53.230;10.444;2023-06-14T12:19:49;25.80;88.50
12025;DHT22;6073;53.230;10.444;2023-06-14T12:22:16;25.70;89.20
12025;DHT22;6073;53.230;10.444;2023-06-14T12:24:45;25.70;89.00
12025;DHT22;6073;53.230;10.444;2023-06-14T12:27:12;25.70;90.20
12025;DHT22;6073;53.230;10.444;2023-06-14T12:29:41;26.10;88.40
12025;DHT22;6073;53.230;10.444;2023-06-14T12:32:09;26.90;86.70
12025;DHT22;6073;53.230;10.444;2023-06-14T12:34:34;27.20;87.40
12025;DHT22;6073;53.230;10.444;2023-06-14T12:37:01;26.90;86.70
12025;DHT22;6073;53.230;10.444;2023-06-14T12:39:26;27.20;88.00
12025;DHT22;6073;53.230;10.444;2023-06-14T12:41:53;26.90;85.50
12025;DHT22;6073;53.230;10.444;2023-06-14T12:44:19;27.10;86.50
12025;DHT22;6073;53.230;10.444;2023-06-14T12:46:45;27.00;85.30
12025;DHT22;6073;53.230;10.444;2023-06-14T12:49:11;26.90;86.80
12025;DHT22;6073;53.230;10.444;2023-06-14T12:51:40;26.60;86.60
12025;DHT22;6073;53.230;10.444;2023-06-14T12:54:06;26.20;86.40
12025;DHT22;6073;53.230;10.444;2023-06-14T12:56:31;26.50;86.50
12025;DHT22;6073;53.230;10.444;2023-06-14T12:58:58;26.70;86.90
12025;DHT22;6073;53.230;10.444;2023-06-14T13:01:23;26.60;86.50
12025;DHT22;6073;53.230;10.444;2023-06-14T13:03:49;26.90;86.20
12025;DHT22;6073;53.230;10.444;2023-06-14T13:06:17;27.10;87.30
12025;DHT22;6073;53.230;10.444;2023-06-14T13:08:42;27.40;85.90
12025;DHT22;6073;53.230;10.444;2023-06-14T13:11:08;27.40;84.20
12025;DHT22;6073;53.230;10.444;2023-06-14T13:13:34;27.60;83.90
12025;DHT22;6073;53.230;10.444;2023-06-14T13:15:59;27.60;83.80
12025;DHT22;6073;53.230;10.444;2023-06-14T13:18:25;27.70;83.20
12025;DHT22;6073;53.230;10.444;2023-06-14T13:20:51;28.00;82.50
12025;DHT22;6073;53.230;10.444;2023-06-14T13:23:17;28.40;81.40
12025;DHT22;6073;53.230;10.444;2023-06-14T13:25:43;28.90;81.50
12025;DHT22;6073;53.230;10.444;2023-06-14T13:28:08;28.70;79.80
12025;DHT22;6073;53.230;10.444;2023-06-14T13:30:34;28.40;79.60
12025;DHT22;6073;53.230;10.444;2023-06-14T13:33:00;28.30;81.40
12025;DHT22;6073;53.230;10.444;2023-06-14T13:35:26;28.00;81.60
12025;DHT22;6073;53.230;10.444;2023-06-14T13:37:52;28.10;82.00
12025;DHT22;6073;53.230;10.444;2023-06-14T13:40:17;27.80;81.40
12025;DHT22;6073;53.230;10.444;2023-06-14T13:42:43;27.10;80.30
12025;DHT22;6073;53.230;10.444;2023-06-14T13:45:11;26.40;81.10
12025;DHT22;6073;53.230;10.444;2023-06-14T13:47:37;26.50;82.40
12025;DHT22;6073;53.230;10.444;2023-06-14T13:50:03;27.00;80.90
12025;DHT22;6073;53.230;10.444;2023-06-14T13:52:29;27.50;82.20
12025;DHT22;6073;53.230;10.444;2023-06-14T13:54:55;28.00;81.70
12025;DHT22;6073;53.230;10.444;2023-06-14T13:57:20;27.70;80.50
12025;DHT22;6073;53.230;10.444;2023-06-14T13:59:46;27.40;81.30
12025;DHT22;6073;53.230;10.444;2023-06-14T14:02:12;27.00;82.10
12025;DHT22;6073;53.230;10.444;2023-06-14T14:04:39;26.40;82.10
12025;DHT22;6073;53.230;10.444;2023-06-14T14:07:05;26.20;83.40
12025;DHT22;6073;53.230;10.444;2023-06-14T14:09:32;25.80;83.80
12025;DHT22;6073;53.230;10.444;2023-06-14T14:11:58;25.30;83.70
12025;DHT22;6073;53.230;10.444;2023-06-14T14:14:24;25.20;85.00
12025;DHT22;6073;53.230;10.444;2023-06-14T14:16:50;25.10;84.50
12025;DHT22;6073;53.230;10.444;2023-06-14T14:19:22;25.00;84.40
12025;DHT22;6073;53.230;10.444;2023-06-14T14:21:47;24.90;84.70
12025;DHT22;6073;53.230;10.444;2023-06-14T14:24:13;24.80;84.70
12025;DHT22;6073;53.230;10.444;2023-06-14T14:26:39;24.80;84.90
12025;DHT22;6073;53.230;10.444;2023-06-14T14:29:05;24.80;87.30
12025;DHT22;6073;53.230;10.444;2023-06-14T14:31:30;25.10;88.50
12025;DHT22;6073;53.230;10.444;2023-06-14T14:33:56;25.80;89.20
12025;DHT22;6073;53.230;10.444;2023-06-14T14:36:21;26.50;88.50
12025;DHT22;6073;53.230;10.444;2023-06-14T14:38:47;26.90;86.80
12025;DHT22;6073;53.230;10.444;2023-06-14T14:41:13;27.30;86.80
12025;DHT22;6073;53.230;10.444;2023-06-14T14:43:39;27.40;87.30
12025;DHT22;6073;53.230;10.444;2023-06-14T14:46:04;26.90;87.60
12025;DHT22;6073;53.230;10.444;2023-06-14T14:48:30;26.60;87.50
12025;DHT22;6073;53.230;10.444;2023-06-14T14:50:56;26.20;87.50
12025;DHT22;6073;53.230;10.444;2023-06-14T14:53:22;25.80;89.30
12025;DHT22;6073;53.230;10.444;2023-06-14T14:55:47;25.80;89.60
12025;DHT22;6073;53.230;10.444;2023-06-14T14:58:13;25.70;89.00
12025;DHT22;6073;53.230;10.444;2023-06-14T15:00:42;25.70;89.50
12025;DHT22;6073;53.230;10.444;2023-06-14T15:03:07;26.10;88.20
12025;DHT22;6073;53.230;10.444;2023-06-14T15:05:33;26.50;87.60
12025;DHT22;6073;53.230;10.444;2023-06-14T15:07:58;27.00;86.10
12025;DHT22;6073;53.230;10.444;2023-06-14T15:10:24;27.40;84.40
12025;DHT22;6073;53.230;10.444;2023-06-14T15:12:49;27.50;84.70
12025;DHT22;6073;53.230;10.444;2023-06-14T15:15:15;27.10;87.00
12025;DHT22;6073;53.230;10.444;2023-06-14T15:17:40;26.60;86.40
12025;DHT22;6073;53.230;10.444;2023-06-14T15:20:06;26.20;87.30
12025;DHT22;6073;53.230;10.444;2023-06-14T15:22:32;25.90;87.30
12025;DHT22;6073;53.230;10.444;2023-06-14T15:24:58;25.70;87.90
12025;DHT22;6073;53.230;10.444;2023-06-14T15:27:23;25.30;88.80
12025;DHT22;6073;53.230;10.444;2023-06-14T15:29:49;24.90;89.90
12025;DHT22;6073;53.230;10.444;2023-06-14T15:32:15;24.70;89.60
12025;DHT22;6073;53.230;10.444;2023-06-14T15:34:40;24.60;89.60
12025;DHT22;6073;53.230;10.444;2023-06-14T15:37:06;24.40;89.80
12025;DHT22;6073;53.230;10.444;2023-06-14T15:39:32;24.50;89.60
12025;DHT22;6073;53.230;10.444;2023-06-14T15:41:59;24.90;90.00
12025;DHT22;6073;53.230;10.444;2023-06-14T15:44:25;25.30;90.10